createdAt,value
2018-11-05T00:01:26.347Z,147.33
2018-11-05T00:03:54.491Z,145.17
2018-11-05T00:06:22.679Z,149.47
2018-11-05T00:08:50.788Z,143.20
2018-11-05T00:11:19.035Z,140.50
2018-11-05T00:13:47.178Z,147.10
2018-11-05T00:16:15.286Z,142.87
2018-11-05T00:18:43.430Z,139.17
2018-11-05T00:21:11.595Z,137.47
2018-11-05T00:23:39.696Z,143.73
2018-11-05T00:26:07.854Z,141.27
2018-11-05T00:28:36.049Z,132.67
2018-11-05T00:31:04.220Z,134.37
2018-11-05T00:33:32.343Z,135.43
2018-11-05T00:36:00.460Z,126.70
2018-11-05T00:38:28.610Z,127.77
2018-11-05T00:40:56.726Z,122.37
2018-11-05T00:43:24.833Z,125.93
2018-11-05T00:45:52.929Z,127.17
2018-11-05T00:48:21.104Z,123.97
2018-11-05T00:50:49.215Z,126.33
2018-11-05T00:53:17.347Z,129.93
2018-11-05T00:55:45.454Z,136.57
2018-11-05T00:58:13.555Z,140.27
2018-11-05T01:00:41.672Z,134.43
2018-11-05T01:03:09.775Z,121.13
2018-11-05T01:05:37.914Z,131.17
2018-11-05T01:08:06.292Z,131.33
2018-11-05T01:10:34.466Z,128.13
2018-11-05T01:13:02.679Z,130.07
2018-11-05T01:15:30.827Z,137.03
2018-11-05T01:17:58.935Z,131.57
2018-11-05T01:20:27.101Z,125.33
2018-11-05T01:22:55.231Z,125.17
2018-11-05T01:25:23.413Z,121.23
2018-11-05T01:27:51.573Z,127.17
2018-11-05T01:30:19.763Z,119.27
2018-11-05T01:32:47.955Z,127.53
2018-11-05T01:35:16.108Z,138.50
2018-11-05T01:37:44.225Z,136.57
2018-11-05T01:40:14.288Z,121.70
2018-11-05T01:42:42.494Z,129.97
2018-11-05T01:45:11.894Z,127.57
2018-11-05T01:47:40.466Z,127.00
2018-11-05T01:50:09.445Z,122.80
2018-11-05T01:52:37.639Z,120.23
2018-11-05T01:55:06.030Z,119.70
2018-11-05T01:57:34.175Z,130.23
2018-11-05T02:00:02.399Z,126.47
2018-11-05T02:02:30.550Z,126.73
2018-11-05T02:04:58.687Z,128.33
2018-11-05T02:07:26.792Z,135.50
2018-11-05T02:09:54.954Z,126.20
2018-11-05T02:12:23.085Z,128.53
2018-11-05T02:14:51.312Z,135.10
2018-11-05T02:17:19.415Z,132.00
2018-11-05T02:19:47.640Z,126.83
2018-11-05T02:22:16.676Z,125.50
2018-11-05T02:24:44.899Z,120.97
2018-11-05T02:27:13.230Z,133.37
2018-11-05T02:29:41.267Z,130.93
2018-11-05T02:32:09.375Z,129.57
2018-11-05T02:34:37.515Z,126.07
2018-11-05T02:37:05.819Z,131.77
2018-11-05T02:39:33.966Z,125.47
2018-11-05T02:42:02.086Z,124.00
2018-11-05T02:44:30.207Z,125.43
2018-11-05T02:46:58.319Z,125.13
2018-11-05T02:49:26.439Z,130.17
2018-11-05T02:51:54.617Z,125.13
2018-11-05T02:54:22.766Z,119.47
2018-11-05T02:56:50.879Z,124.43
2018-11-05T02:59:19.013Z,126.20
2018-11-05T03:01:47.119Z,130.07
2018-11-05T03:04:15.259Z,139.63
2018-11-05T03:06:43.455Z,126.63
2018-11-05T03:09:12.557Z,124.77
2018-11-05T03:11:41.119Z,128.10
2018-11-05T03:14:09.513Z,123.77
2018-11-05T03:16:38.086Z,134.30
2018-11-05T03:19:06.478Z,110.27
2018-11-05T03:21:34.622Z,122.60
2018-11-05T03:24:03.111Z,126.70
2018-11-05T03:26:31.436Z,119.50
2018-11-05T03:28:59.603Z,129.17
2018-11-05T03:31:27.734Z,129.00
2018-11-05T03:33:55.855Z,125.43
2018-11-05T03:36:24.087Z,127.70
2018-11-05T03:38:52.297Z,123.13
2018-11-05T03:41:20.411Z,117.40
2018-11-05T03:43:48.532Z,124.33
2018-11-05T03:46:16.624Z,118.00
2018-11-05T03:48:44.787Z,125.07
2018-11-05T03:51:13.027Z,114.07
2018-11-05T03:53:41.132Z,117.43
2018-11-05T03:56:09.359Z,126.37
2018-11-05T03:58:37.452Z,130.17
2018-11-05T04:01:05.617Z,120.60
2018-11-05T04:03:33.844Z,116.97
2018-11-05T04:06:01.967Z,115.97
2018-11-05T04:08:30.075Z,109.97
2018-11-05T04:10:58.178Z,118.23
2018-11-05T04:13:26.322Z,128.53
2018-11-05T04:15:54.490Z,121.43
2018-11-05T04:18:22.634Z,109.17
2018-11-05T04:20:50.743Z,111.90
2018-11-05T04:23:18.887Z,111.63
2018-11-05T04:25:46.990Z,122.77
2018-11-05T04:28:15.134Z,124.90
2018-11-05T04:30:43.300Z,112.87
2018-11-05T04:33:11.415Z,113.37
2018-11-05T04:35:39.561Z,115.23
2018-11-05T04:38:07.719Z,115.33
2018-11-05T04:40:35.916Z,119.00
2018-11-05T04:43:04.059Z,114.07
2018-11-05T04:45:32.311Z,112.53
2018-11-05T04:48:00.438Z,120.90
2018-11-05T04:50:28.587Z,108.63
2018-11-05T04:52:56.772Z,108.40
2018-11-05T04:55:24.951Z,122.97
2018-11-05T04:57:53.058Z,115.40
2018-11-05T05:00:21.224Z,119.60
2018-11-05T05:02:49.351Z,120.43
2018-11-05T05:05:17.597Z,111.50
2018-11-05T05:07:45.719Z,110.17
2018-11-05T05:10:13.818Z,114.93
2018-11-05T05:12:42.881Z,116.83
2018-11-05T05:15:11.347Z,112.60
2018-11-05T05:17:40.144Z,111.93
2018-11-05T05:20:09.482Z,122.77
2018-11-05T05:22:37.757Z,116.57
2018-11-05T05:25:05.932Z,105.93
2018-11-05T05:27:34.279Z,115.57
2018-11-05T05:30:02.398Z,123.10
2018-11-05T05:32:30.580Z,105.93
2018-11-05T05:34:58.760Z,122.67
2018-11-05T05:37:26.921Z,109.80
2018-11-05T05:39:55.032Z,117.87
2018-11-05T05:42:23.189Z,114.43
2018-11-05T05:44:51.333Z,118.37
2018-11-05T05:47:19.442Z,105.73
2018-11-05T05:49:47.603Z,118.53
2018-11-05T05:52:15.721Z,115.67
2018-11-05T05:54:43.856Z,110.43
2018-11-05T05:57:11.999Z,115.77
2018-11-05T05:59:40.138Z,115.20
2018-11-05T06:02:08.311Z,116.43
2018-11-05T06:04:36.442Z,109.97
2018-11-05T06:07:04.610Z,116.93
2018-11-05T06:09:32.723Z,111.27
2018-11-05T06:12:00.846Z,120.73
2018-11-05T06:14:29.036Z,102.37
2018-11-05T06:16:57.218Z,119.13
2018-11-05T06:19:25.383Z,110.37
2018-11-05T06:21:53.554Z,114.10
2018-11-05T06:24:21.730Z,108.30
2018-11-05T06:26:49.887Z,110.20
2018-11-05T06:29:17.998Z,124.73
2018-11-05T06:31:46.163Z,107.97
2018-11-05T06:34:14.286Z,107.77
2018-11-05T06:36:42.419Z,111.40
2018-11-05T06:39:11.890Z,116.87
2018-11-05T06:41:40.377Z,125.47
2018-11-05T06:44:08.600Z,109.83
2018-11-05T06:46:36.881Z,114.97
2018-11-05T06:49:05.622Z,106.27
2018-11-05T06:51:33.791Z,113.17
2018-11-05T06:54:04.625Z,109.40
2018-11-05T06:56:35.699Z,104.10
2018-11-05T06:59:03.875Z,103.97
2018-11-05T07:01:32.463Z,113.63
2018-11-05T07:04:00.668Z,112.43
2018-11-05T07:06:28.839Z,109.50
2018-11-05T07:08:56.988Z,108.80
2018-11-05T07:11:25.246Z,117.40
2018-11-05T07:13:53.488Z,122.00
2018-11-05T07:16:21.727Z,111.77
2018-11-05T07:18:50.087Z,106.00
2018-11-05T07:21:18.571Z,112.93
2018-11-05T07:23:46.674Z,103.83
2018-11-05T07:26:14.839Z,101.20
2018-11-05T07:28:43.007Z,95.13
2018-11-05T07:31:11.185Z,102.37
2018-11-05T07:33:39.411Z,96.20
2018-11-05T07:36:07.509Z,95.57
2018-11-05T07:38:35.642Z,103.27
2018-11-05T07:41:03.789Z,100.97
2018-11-05T07:43:31.933Z,98.03
2018-11-05T07:46:00.035Z,93.93
2018-11-05T07:48:28.147Z,91.23
2018-11-05T07:50:56.265Z,87.70
2018-11-05T07:53:24.373Z,87.13
2018-11-05T07:55:52.523Z,85.13
2018-11-05T07:58:20.591Z,86.07
2018-11-05T08:00:55.018Z,84.93
2018-11-05T08:03:23.515Z,86.93
2018-11-05T08:05:52.159Z,90.50
2018-11-05T08:08:20.359Z,77.37
2018-11-05T08:10:48.418Z,82.00
2018-11-05T08:13:16.523Z,81.90
2018-11-05T08:15:44.639Z,85.20
2018-11-05T08:18:12.741Z,78.47
2018-11-05T08:20:40.901Z,81.87
2018-11-05T08:23:09.017Z,84.07
2018-11-05T08:25:37.116Z,74.67
2018-11-05T08:28:05.459Z,77.63
2018-11-05T08:30:33.570Z,72.27
2018-11-05T08:33:01.670Z,80.27
2018-11-05T08:35:29.791Z,82.77
2018-11-05T08:37:57.949Z,74.53
2018-11-05T08:40:27.216Z,70.80
2018-11-05T08:42:55.927Z,71.27
2018-11-05T08:45:25.304Z,74.27
2018-11-05T08:47:53.455Z,73.33
2018-11-05T08:50:22.866Z,70.43
2018-11-05T08:52:50.838Z,66.10
2018-11-05T08:55:20.439Z,67.73
2018-11-05T08:57:48.681Z,68.30
2018-11-05T09:00:22.683Z,68.03
2018-11-05T09:02:51.124Z,64.47
2018-11-05T09:05:19.576Z,61.33
2018-11-05T09:07:48.372Z,70.23
2018-11-05T09:10:16.659Z,68.07
2018-11-05T09:12:44.766Z,71.67
2018-11-05T09:15:14.334Z,68.40
2018-11-05T09:17:43.327Z,66.40
2018-11-05T09:24:49.515Z,70.13
2018-11-05T09:27:17.712Z,76.93
2018-11-05T09:29:45.848Z,67.93
2018-11-05T09:32:13.931Z,67.87
2018-11-05T09:34:42.049Z,68.23
2018-11-05T09:37:10.195Z,74.30
2018-11-05T09:39:38.307Z,71.63
2018-11-05T09:42:06.454Z,68.33
2018-11-05T09:44:34.556Z,62.90
2018-11-05T09:47:02.652Z,70.63
2018-11-05T09:49:30.958Z,70.10
2018-11-05T09:51:59.126Z,65.73
2018-11-05T09:54:27.258Z,58.57
2018-11-05T09:56:55.473Z,63.00
2018-11-05T09:59:23.560Z,60.13
2018-11-05T10:01:51.659Z,59.97
2018-11-05T10:04:19.838Z,62.87
2018-11-05T10:06:47.990Z,61.40
2018-11-05T10:09:16.140Z,53.73
2018-11-05T10:11:44.339Z,58.97
2018-11-05T10:14:12.524Z,52.37
2018-11-05T10:16:40.656Z,60.37
2018-11-05T10:19:08.843Z,61.17
2018-11-05T10:21:37.050Z,57.67
2018-11-05T10:24:05.199Z,58.70
2018-11-05T10:26:33.312Z,57.13
2018-11-05T10:29:01.440Z,58.60
2018-11-05T10:31:29.621Z,53.67
2018-11-05T10:33:57.727Z,55.93
2018-11-05T10:36:25.867Z,55.87
2018-11-05T10:38:53.974Z,51.90
2018-11-05T10:41:22.101Z,61.57
2018-11-05T10:43:50.211Z,59.33
2018-11-05T10:46:18.402Z,56.13
2018-11-05T10:48:46.517Z,55.93
2018-11-05T10:51:14.711Z,57.80
2018-11-05T10:53:42.766Z,56.40
2018-11-05T10:56:10.881Z,58.40
2018-11-05T10:58:39.000Z,53.67
2018-11-05T11:01:12.478Z,57.67
2018-11-05T11:03:41.060Z,58.30
2018-11-05T11:06:10.396Z,54.77
2018-11-05T11:08:38.491Z,54.17
2018-11-05T11:11:06.645Z,52.93
2018-11-05T11:13:34.749Z,58.70
2018-11-05T11:16:02.875Z,54.67
2018-11-05T11:18:30.971Z,52.20
2018-11-05T11:20:59.136Z,50.33
2018-11-05T11:23:27.244Z,50.33
2018-11-05T11:25:55.378Z,48.57
2018-11-05T11:28:23.543Z,52.83
2018-11-05T11:30:51.588Z,56.50
2018-11-05T11:33:19.719Z,54.87
2018-11-05T11:35:47.861Z,50.23
2018-11-05T11:38:15.979Z,59.33
2018-11-05T11:40:44.142Z,48.03
2018-11-05T11:43:12.239Z,48.67
2018-11-05T11:45:40.347Z,52.20
2018-11-05T11:48:08.448Z,53.97
2018-11-05T11:50:36.594Z,56.70
2018-11-05T11:53:04.932Z,56.43
2018-11-05T11:55:33.046Z,55.63
2018-11-05T11:58:01.205Z,55.50
2018-11-05T12:00:29.311Z,53.70
2018-11-05T12:02:57.404Z,56.50
2018-11-05T12:05:25.789Z,49.83
2018-11-05T12:07:53.734Z,53.00
2018-11-05T12:10:23.020Z,54.20
2018-11-05T12:12:51.243Z,49.97
2018-11-05T12:15:20.022Z,53.30
2018-11-05T12:17:49.293Z,52.80
2018-11-05T12:20:18.714Z,47.93
2018-11-05T12:22:47.487Z,51.27
2018-11-05T12:25:15.609Z,50.93
2018-11-05T12:27:43.853Z,48.50
2018-11-05T12:30:15.706Z,50.17
2018-11-05T12:32:44.587Z,54.50
2018-11-05T12:35:13.171Z,49.70
2018-11-05T12:37:42.547Z,53.73
2018-11-05T12:40:12.320Z,57.60
2018-11-05T12:42:40.468Z,55.70
2018-11-05T12:45:08.905Z,54.63
2018-11-05T12:47:37.520Z,53.93
2018-11-05T12:50:07.273Z,49.83
2018-11-05T12:52:35.454Z,51.83
2018-11-05T12:55:03.592Z,48.30
2018-11-05T12:57:31.735Z,49.17
2018-11-05T12:59:59.843Z,46.50
2018-11-05T13:02:27.978Z,52.30
2018-11-05T13:04:56.266Z,53.23
2018-11-05T13:07:24.496Z,48.63
2018-11-05T13:09:52.603Z,49.03
2018-11-05T13:12:20.825Z,54.43
2018-11-05T13:14:48.953Z,51.37
2018-11-05T13:17:17.096Z,47.27
2018-11-05T13:19:45.223Z,47.37
2018-11-05T13:22:13.467Z,49.53
2018-11-05T13:24:41.563Z,48.70
2018-11-05T13:27:09.667Z,49.97
2018-11-05T13:29:37.805Z,51.27
2018-11-05T13:32:06.228Z,51.90
2018-11-05T13:34:34.352Z,52.20
2018-11-05T13:37:02.772Z,55.33
2018-11-05T13:39:30.834Z,55.20
2018-11-05T13:41:58.988Z,56.43
2018-11-05T13:44:27.150Z,61.27
2018-11-05T13:46:55.521Z,60.07
2018-11-05T13:49:23.624Z,63.63
2018-11-05T13:51:51.687Z,63.10
2018-11-05T13:54:19.887Z,66.00
2018-11-05T13:56:47.917Z,66.37
2018-11-05T13:59:16.027Z,64.07
2018-11-05T14:01:44.166Z,76.87
2018-11-05T14:04:12.538Z,73.67
2018-11-05T14:06:40.646Z,74.43
2018-11-05T14:09:09.099Z,78.30
2018-11-05T14:11:37.210Z,75.57
2018-11-05T14:14:05.487Z,85.13
2018-11-05T14:16:33.623Z,75.87
2018-11-05T14:19:01.746Z,80.07
2018-11-05T14:21:29.868Z,81.70
2018-11-05T14:23:57.979Z,77.87
2018-11-05T14:26:26.099Z,84.33
2018-11-05T14:28:54.603Z,86.50
2018-11-05T14:31:22.364Z,94.23
2018-11-05T14:33:50.583Z,90.10
2018-11-05T14:36:18.758Z,94.07
2018-11-05T14:38:46.923Z,94.83
2018-11-05T14:41:15.090Z,96.40
2018-11-05T14:43:43.301Z,104.17
2018-11-05T14:46:11.397Z,101.23
2018-11-05T14:48:39.594Z,100.70
2018-11-05T14:51:07.662Z,103.90
2018-11-05T14:53:36.068Z,112.30
2018-11-05T14:56:04.251Z,107.17
2018-11-05T14:58:32.407Z,104.63
2018-11-05T15:01:00.667Z,111.67
2018-11-05T15:03:28.761Z,104.50
2018-11-05T15:05:56.879Z,105.03
2018-11-05T15:08:25.023Z,104.87
2018-11-05T15:10:53.194Z,119.23
2018-11-05T15:13:21.351Z,111.93
2018-11-05T15:15:49.454Z,114.10
2018-11-05T15:18:17.756Z,110.50
2018-11-05T15:20:45.857Z,110.27
2018-11-05T15:23:13.943Z,120.90
2018-11-05T15:25:42.128Z,119.43
2018-11-05T15:28:10.208Z,122.30
2018-11-05T15:30:38.326Z,124.67
2018-11-05T15:33:07.055Z,127.07
2018-11-05T15:35:35.164Z,127.30
2018-11-05T15:38:03.331Z,123.80
2018-11-05T15:40:31.444Z,124.77
2018-11-05T15:42:59.563Z,120.90
2018-11-05T15:45:27.831Z,124.10
2018-11-05T15:47:56.032Z,125.47
2018-11-05T15:50:24.212Z,128.23
2018-11-05T15:57:49.350Z,123.10
2018-11-05T16:00:20.578Z,129.23
2018-11-05T16:02:50.175Z,133.83
2018-11-05T16:05:18.745Z,130.67
2018-11-05T16:07:46.934Z,133.07
2018-11-05T16:10:15.245Z,140.40
2018-11-05T16:12:43.505Z,130.80
2018-11-05T16:15:12.185Z,129.10
2018-11-05T16:17:40.350Z,131.90
2018-11-05T16:20:10.250Z,140.37
2018-11-05T16:22:38.438Z,142.30
2018-11-05T16:25:06.616Z,149.73
2018-11-05T16:27:35.059Z,143.30
2018-11-05T16:30:03.235Z,133.97
2018-11-05T16:32:31.365Z,130.73
2018-11-05T16:34:59.577Z,132.90
2018-11-05T16:37:27.680Z,125.23
2018-11-05T16:39:56.009Z,126.47
2018-11-05T16:42:24.038Z,131.00
2018-11-05T16:44:52.215Z,131.07
2018-11-05T16:47:20.345Z,122.17
2018-11-05T16:49:48.478Z,127.70
2018-11-05T16:52:16.622Z,122.27
2018-11-05T16:54:44.824Z,121.47
2018-11-05T16:57:12.955Z,130.83
2018-11-05T16:59:41.076Z,136.47
2018-11-05T17:02:17.104Z,131.97
2018-11-05T17:04:46.911Z,137.27
2018-11-05T17:07:15.198Z,137.83
2018-11-05T17:09:43.303Z,137.53
2018-11-05T17:12:11.431Z,141.13
2018-11-05T17:14:39.740Z,131.47
2018-11-05T17:17:07.851Z,133.83
2018-11-05T17:19:35.951Z,134.13
2018-11-05T17:22:04.150Z,136.47
2018-11-05T17:24:36.204Z,134.63
2018-11-05T17:27:04.354Z,136.27
2018-11-05T17:29:32.472Z,130.10
2018-11-05T17:32:00.609Z,143.03
2018-11-05T17:34:28.724Z,138.70
2018-11-05T17:36:56.927Z,134.23
2018-11-05T17:39:25.064Z,142.67
2018-11-05T17:41:53.180Z,137.57
2018-11-05T17:44:21.275Z,135.80
2018-11-05T17:46:49.413Z,139.07
2018-11-05T17:49:17.655Z,137.27
2018-11-05T17:51:45.765Z,136.87
2018-11-05T17:54:13.874Z,140.67
2018-11-05T17:56:42.121Z,144.30
2018-11-05T17:59:10.199Z,144.27
2018-11-05T18:01:38.304Z,146.43
2018-11-05T18:04:06.587Z,150.07
2018-11-05T18:06:34.643Z,155.70
2018-11-05T18:09:02.869Z,143.50
2018-11-05T18:11:31.007Z,140.37
2018-11-05T18:13:59.107Z,143.73
2018-11-05T18:16:27.239Z,141.63
2018-11-05T18:18:55.460Z,140.27
2018-11-05T18:21:23.582Z,152.60
2018-11-05T18:23:51.680Z,146.43
2018-11-05T18:26:19.972Z,150.27
2018-11-05T18:28:48.143Z,147.70
2018-11-05T18:31:16.375Z,146.20
2018-11-05T18:33:44.375Z,156.43
2018-11-05T18:36:12.519Z,149.00
2018-11-05T18:38:40.627Z,153.03
2018-11-05T18:41:08.772Z,149.50
2018-11-05T18:43:36.880Z,150.80
2018-11-05T18:46:05.372Z,148.90
2018-11-05T18:48:33.481Z,153.70
2018-11-05T18:51:01.612Z,148.50
2018-11-05T18:53:29.748Z,151.00
2018-11-05T18:55:57.855Z,164.90
2018-11-05T18:58:26.019Z,155.87
2018-11-05T19:00:54.143Z,151.57
2018-11-05T19:03:22.387Z,164.57
2018-11-05T19:05:50.410Z,169.70
2018-11-05T19:08:18.515Z,156.73
2018-11-05T19:10:46.667Z,160.97
2018-11-05T19:13:14.771Z,153.07
2018-11-05T19:15:42.949Z,164.30
2018-11-05T19:18:11.006Z,157.30
2018-11-05T19:20:39.193Z,164.17
2018-11-05T19:23:07.456Z,159.43
2018-11-05T19:25:35.514Z,165.70
2018-11-05T19:28:03.623Z,170.97
2018-11-05T19:30:31.922Z,156.73
2018-11-05T19:32:59.961Z,175.97
2018-11-05T19:35:28.107Z,163.30
2018-11-05T19:37:56.208Z,155.10
2018-11-05T19:40:24.380Z,175.33
2018-11-05T19:42:52.538Z,181.90
2018-11-05T19:45:21.933Z,178.87
2018-11-05T19:47:50.096Z,166.30
2018-11-05T19:50:19.705Z,174.30
2018-11-05T19:52:48.419Z,164.80
2018-11-05T19:55:17.162Z,178.57
2018-11-05T19:57:45.970Z,166.37
2018-11-05T20:00:16.519Z,170.07
2018-11-05T20:02:45.075Z,174.03
2018-11-05T20:05:13.662Z,186.03
2018-11-05T20:07:41.875Z,189.63
2018-11-05T20:10:10.734Z,201.17
2018-11-05T20:12:38.859Z,184.13
2018-11-05T20:15:07.588Z,194.00
2018-11-05T20:17:36.126Z,187.73
2018-11-05T20:20:05.034Z,201.40
2018-11-05T20:22:33.311Z,198.50
2018-11-05T20:25:01.424Z,191.23
2018-11-05T20:27:29.616Z,194.10
2018-11-05T20:29:57.731Z,186.43
2018-11-05T20:32:26.437Z,180.03
2018-11-05T20:34:54.204Z,176.87
2018-11-05T20:37:22.336Z,173.27
2018-11-05T20:39:50.546Z,178.10
2018-11-05T20:42:18.620Z,176.70
2018-11-05T20:44:46.785Z,177.87
2018-11-05T20:47:14.891Z,189.53
2018-11-05T20:49:43.005Z,180.00
2018-11-05T20:52:11.142Z,186.87
2018-11-05T20:54:39.327Z,205.50
2018-11-05T20:57:07.480Z,185.97
2018-11-05T20:59:35.927Z,189.13
2018-11-05T21:02:04.115Z,173.70
2018-11-05T21:04:32.258Z,191.83
2018-11-05T21:07:00.484Z,179.03
2018-11-05T21:09:28.653Z,190.47
2018-11-05T21:11:56.808Z,211.50
2018-11-05T21:14:24.953Z,197.10
2018-11-05T21:16:53.422Z,203.90
2018-11-05T21:19:21.709Z,200.80
2018-11-05T21:21:50.055Z,208.37
2018-11-05T21:24:18.029Z,186.23
2018-11-05T21:26:46.235Z,206.90
2018-11-05T21:29:14.376Z,208.50
2018-11-05T21:31:42.494Z,207.30
2018-11-05T21:34:10.785Z,202.57
2018-11-05T21:36:38.900Z,208.20
2018-11-05T21:39:08.021Z,191.03
2018-11-05T21:41:36.143Z,188.40
2018-11-05T21:44:04.442Z,196.40
2018-11-05T21:46:32.543Z,201.80
2018-11-05T21:49:00.670Z,193.27
2018-11-05T21:51:29.183Z,192.53
2018-11-05T21:53:57.372Z,215.97
2018-11-05T21:56:25.695Z,210.87
2018-11-05T21:58:54.482Z,204.83
2018-11-05T22:01:23.888Z,191.17
2018-11-05T22:03:51.984Z,207.27
2018-11-05T22:06:20.083Z,217.30
2018-11-05T22:08:48.184Z,200.80
2018-11-05T22:11:16.307Z,203.43
2018-11-05T22:13:44.429Z,187.77
2018-11-05T22:16:12.526Z,215.57
2018-11-05T22:18:40.764Z,177.73
2018-11-05T22:21:08.861Z,177.87
2018-11-05T22:23:36.957Z,205.50
2018-11-05T22:26:05.126Z,201.13
2018-11-05T22:28:33.322Z,195.90
2018-11-05T22:31:01.424Z,176.97
2018-11-05T22:33:29.529Z,179.67
2018-11-05T22:35:57.707Z,187.07
2018-11-05T22:38:25.867Z,192.50
2018-11-05T22:40:54.065Z,208.57
2018-11-05T22:43:22.155Z,193.03
2018-11-05T22:45:50.283Z,216.03
2018-11-05T22:48:18.394Z,184.37
2018-11-05T22:50:46.842Z,186.53
2018-11-05T22:53:14.960Z,215.07
2018-11-05T22:55:43.083Z,190.17
2018-11-05T22:58:11.185Z,190.17
2018-11-05T23:00:44.771Z,179.13
2018-11-05T23:03:18.349Z,203.93
2018-11-05T23:05:46.443Z,196.37
2018-11-05T23:08:14.562Z,196.67
2018-11-05T23:10:42.656Z,179.30
2018-11-05T23:13:10.796Z,197.03
2018-11-05T23:15:38.936Z,183.10
2018-11-05T23:18:07.125Z,169.23
2018-11-05T23:20:35.151Z,165.23
2018-11-05T23:23:03.271Z,206.97
2018-11-05T23:25:31.366Z,182.17
2018-11-05T23:27:59.502Z,185.03
2018-11-05T23:30:27.597Z,177.60
2018-11-05T23:32:55.751Z,171.23
2018-11-05T23:35:23.955Z,189.87
2018-11-05T23:37:52.085Z,182.87
2018-11-05T23:40:20.306Z,164.90
2018-11-05T23:42:48.433Z,176.83
2018-11-05T23:45:16.918Z,171.20
2018-11-05T23:47:45.012Z,170.90
2018-11-05T23:50:13.471Z,165.23
2018-11-05T23:52:41.653Z,183.23
2018-11-05T23:55:10.439Z,166.10
2018-11-05T23:57:38.587Z,182.63
